sensor_id;sensor_type;location;lat;lon;timestamp;P1;durP1;ratioP1;P2;durP2;ratioP2
15398;SDS011;7797;51.428;6.756;2023-03-12T00:04:02;5.47;;;3.80;;
15398;SDS011;7797;51.428;6.756;2023-03-12T00:06:29;5.40;;;3.70;;
15398;SDS011;7797;51.428;6.756;2023-03-12T00:08:56;5.33;;;3.90;;
15398;SDS011;7797;51.428;6.756;2023-03-12T00:11:24;3.90;;;3.50;;
15398;SDS011;7797;51.428;6.756;2023-03-12T00:13:51;5.83;;;3.60;;
15398;SDS011;7797;51.428;6.756;2023-03-12T00:16:20;9.20;;;3.43;;
15398;SDS011;7797;51.428;6.756;2023-03-12T00:18:48;5.87;;;3.63;;
15398;SDS011;7797;51.428;6.756;2023-03-12T00:21:16;4.90;;;3.40;;
15398;SDS011;7797;51.428;6.756;2023-03-12T00:23:44;4.70;;;3.30;;
15398;SDS011;7797;51.428;6.756;2023-03-12T00:26:15;5.03;;;3.63;;
15398;SDS011;7797;51.428;6.756;2023-03-12T00:28:42;5.30;;;3.67;;
15398;SDS011;7797;51.428;6.756;2023-03-12T00:31:29;6.07;;;3.40;;
15398;SDS011;7797;51.428;6.756;2023-03-12T00:33:58;3.80;;;3.10;;
15398;SDS011;7797;51.428;6.756;2023-03-12T00:36:26;6.63;;;3.03;;
15398;SDS011;7797;51.428;6.756;2023-03-12T00:38:55;5.73;;;3.47;;
15398;SDS011;7797;51.428;6.756;2023-03-12T00:41:23;3.30;;;2.90;;
15398;SDS011;7797;51.428;6.756;2023-03-12T00:43:52;3.93;;;3.00;;
15398;SDS011;7797;51.428;6.756;2023-03-12T00:46:18;3.97;;;3.40;;
15398;SDS011;7797;51.428;6.756;2023-03-12T00:48:46;3.63;;;2.80;;
15398;SDS011;7797;51.428;6.756;2023-03-12T00:51:13;3.73;;;2.80;;
15398;SDS011;7797;51.428;6.756;2023-03-12T00:53:40;4.47;;;3.27;;
15398;SDS011;7797;51.428;6.756;2023-03-12T00:56:07;4.67;;;2.83;;
15398;SDS011;7797;51.428;6.756;2023-03-12T00:58:34;3.00;;;2.60;;
15398;SDS011;7797;51.428;6.756;2023-03-12T01:01:01;4.50;;;2.93;;
15398;SDS011;7797;51.428;6.756;2023-03-12T01:03:28;2.80;;;2.60;;
15398;SDS011;7797;51.428;6.756;2023-03-12T01:05:55;4.30;;;2.50;;
15398;SDS011;7797;51.428;6.756;2023-03-12T01:08:26;2.47;;;2.27;;
15398;SDS011;7797;51.428;6.756;2023-03-12T01:10:52;3.37;;;2.60;;
15398;SDS011;7797;51.428;6.756;2023-03-12T01:13:19;2.97;;;2.50;;
15398;SDS011;7797;51.428;6.756;2023-03-12T01:15:46;4.30;;;2.37;;
15398;SDS011;7797;51.428;6.756;2023-03-12T01:18:13;4.53;;;2.40;;
15398;SDS011;7797;51.428;6.756;2023-03-12T01:20:40;3.83;;;2.50;;
15398;SDS011;7797;51.428;6.756;2023-03-12T01:23:07;3.67;;;2.20;;
15398;SDS011;7797;51.428;6.756;2023-03-12T01:25:34;2.70;;;2.30;;
15398;SDS011;7797;51.428;6.756;2023-03-12T01:28:01;6.10;;;2.23;;
15398;SDS011;7797;51.428;6.756;2023-03-12T01:30:29;4.23;;;2.50;;
15398;SDS011;7797;51.428;6.756;2023-03-12T01:32:56;3.13;;;2.60;;
15398;SDS011;7797;51.428;6.756;2023-03-12T01:35:23;4.03;;;2.10;;
15398;SDS011;7797;51.428;6.756;2023-03-12T01:37:50;3.97;;;2.30;;
15398;SDS011;7797;51.428;6.756;2023-03-12T01:40:19;3.30;;;2.33;;
15398;SDS011;7797;51.428;6.756;2023-03-12T01:42:56;4.60;;;2.20;;
15398;SDS011;7797;51.428;6.756;2023-03-12T01:48:24;3.70;;;2.43;;
15398;SDS011;7797;51.428;6.756;2023-03-12T01:50:52;2.60;;;2.40;;
15398;SDS011;7797;51.428;6.756;2023-03-12T01:53:25;3.47;;;2.30;;
15398;SDS011;7797;51.428;6.756;2023-03-12T01:55:53;9.03;;;2.23;;
15398;SDS011;7797;51.428;6.756;2023-03-12T01:58:20;3.57;;;2.27;;
15398;SDS011;7797;51.428;6.756;2023-03-12T02:00:47;3.57;;;2.57;;
15398;SDS011;7797;51.428;6.756;2023-03-12T02:03:14;3.23;;;1.93;;
15398;SDS011;7797;51.428;6.756;2023-03-12T02:05:45;4.33;;;2.13;;
15398;SDS011;7797;51.428;6.756;2023-03-12T02:08:17;2.57;;;2.17;;
15398;SDS011;7797;51.428;6.756;2023-03-12T02:10:44;3.83;;;2.17;;
15398;SDS011;7797;51.428;6.756;2023-03-12T02:13:11;4.07;;;2.47;;
15398;SDS011;7797;51.428;6.756;2023-03-12T02:15:38;2.30;;;2.07;;
15398;SDS011;7797;51.428;6.756;2023-03-12T02:18:06;3.17;;;2.30;;
15398;SDS011;7797;51.428;6.756;2023-03-12T02:23:37;4.07;;;2.93;;
15398;SDS011;7797;51.428;6.756;2023-03-12T02:26:08;2.67;;;2.37;;
15398;SDS011;7797;51.428;6.756;2023-03-12T02:28:35;3.50;;;2.27;;
15398;SDS011;7797;51.428;6.756;2023-03-12T02:31:08;2.97;;;2.30;;
15398;SDS011;7797;51.428;6.756;2023-03-12T02:33:37;2.93;;;2.03;;
15398;SDS011;7797;51.428;6.756;2023-03-12T02:36:03;2.83;;;2.27;;
15398;SDS011;7797;51.428;6.756;2023-03-12T02:41:17;2.50;;;2.30;;
15398;SDS011;7797;51.428;6.756;2023-03-12T02:43:45;2.20;;;2.00;;
15398;SDS011;7797;51.428;6.756;2023-03-12T02:46:15;3.73;;;2.30;;
15398;SDS011;7797;51.428;6.756;2023-03-12T02:48:42;4.20;;;2.40;;
15398;SDS011;7797;51.428;6.756;2023-03-12T02:51:09;3.37;;;2.20;;
15398;SDS011;7797;51.428;6.756;2023-03-12T02:53:36;3.87;;;2.93;;
15398;SDS011;7797;51.428;6.756;2023-03-12T02:56:02;2.90;;;2.40;;
15398;SDS011;7797;51.428;6.756;2023-03-12T02:58:29;4.27;;;2.30;;
15398;SDS011;7797;51.428;6.756;2023-03-12T03:00:56;2.40;;;2.20;;
15398;SDS011;7797;51.428;6.756;2023-03-12T03:03:23;4.37;;;2.20;;
15398;SDS011;7797;51.428;6.756;2023-03-12T03:05:50;4.27;;;2.57;;
15398;SDS011;7797;51.428;6.756;2023-03-12T03:08:17;2.57;;;2.03;;
15398;SDS011;7797;51.428;6.756;2023-03-12T03:10:44;4.17;;;2.33;;
15398;SDS011;7797;51.428;6.756;2023-03-12T03:13:10;5.27;;;2.40;;
15398;SDS011;7797;51.428;6.756;2023-03-12T03:15:37;3.43;;;2.47;;
15398;SDS011;7797;51.428;6.756;2023-03-12T03:18:04;3.93;;;2.40;;
15398;SDS011;7797;51.428;6.756;2023-03-12T03:20:31;2.77;;;2.20;;
15398;SDS011;7797;51.428;6.756;2023-03-12T03:22:58;3.50;;;2.47;;
15398;SDS011;7797;51.428;6.756;2023-03-12T03:25:24;2.43;;;2.27;;
15398;SDS011;7797;51.428;6.756;2023-03-12T03:27:51;5.03;;;2.13;;
15398;SDS011;7797;51.428;6.756;2023-03-12T03:30:18;5.30;;;2.47;;
15398;SDS011;7797;51.428;6.756;2023-03-12T03:32:47;4.47;;;2.40;;
15398;SDS011;7797;51.428;6.756;2023-03-12T03:35:15;3.73;;;2.37;;
15398;SDS011;7797;51.428;6.756;2023-03-12T03:37:42;5.50;;;2.23;;
15398;SDS011;7797;51.428;6.756;2023-03-12T03:40:09;3.67;;;2.20;;
15398;SDS011;7797;51.428;6.756;2023-03-12T03:42:37;4.30;;;2.50;;
15398;SDS011;7797;51.428;6.756;2023-03-12T03:45:05;3.63;;;2.20;;
15398;SDS011;7797;51.428;6.756;2023-03-12T03:47:33;2.53;;;2.20;;
15398;SDS011;7797;51.428;6.756;2023-03-12T03:49:59;5.13;;;2.50;;
15398;SDS011;7797;51.428;6.756;2023-03-12T03:52:26;4.13;;;2.20;;
15398;SDS011;7797;51.428;6.756;2023-03-12T03:54:53;4.17;;;2.20;;
15398;SDS011;7797;51.428;6.756;2023-03-12T03:57:20;2.67;;;1.93;;
15398;SDS011;7797;51.428;6.756;2023-03-12T03:59:46;3.13;;;2.13;;
15398;SDS011;7797;51.428;6.756;2023-03-12T04:02:13;2.93;;;2.30;;
15398;SDS011;7797;51.428;6.756;2023-03-12T04:04:40;5.00;;;2.17;;
15398;SDS011;7797;51.428;6.756;2023-03-12T04:07:06;2.27;;;2.07;;
15398;SDS011;7797;51.428;6.756;2023-03-12T04:09:33;3.07;;;2.33;;
15398;SDS011;7797;51.428;6.756;2023-03-12T04:12:00;5.07;;;2.20;;
15398;SDS011;7797;51.428;6.756;2023-03-12T04:14:26;2.20;;;2.00;;
15398;SDS011;7797;51.428;6.756;2023-03-12T04:16:53;3.87;;;1.90;;
15398;SDS011;7797;51.428;6.756;2023-03-12T04:19:20;2.77;;;2.10;;
15398;SDS011;7797;51.428;6.756;2023-03-12T04:21:46;5.10;;;2.23;;
15398;SDS011;7797;51.428;6.756;2023-03-12T04:24:14;4.40;;;2.00;;
15398;SDS011;7797;51.428;6.756;2023-03-12T04:26:41;4.30;;;2.23;;
15398;SDS011;7797;51.428;6.756;2023-03-12T04:29:08;3.70;;;2.20;;
15398;SDS011;7797;51.428;6.756;2023-03-12T04:31:35;3.90;;;2.50;;
15398;SDS011;7797;51.428;6.756;2023-03-12T04:34:02;2.27;;;1.97;;
15398;SDS011;7797;51.428;6.756;2023-03-12T04:36:29;2.67;;;1.90;;
15398;SDS011;7797;51.428;6.756;2023-03-12T04:38:55;3.93;;;2.43;;
15398;SDS011;7797;51.428;6.756;2023-03-12T04:41:22;2.93;;;2.10;;
15398;SDS011;7797;51.428;6.756;2023-03-12T04:43:49;4.60;;;2.20;;
15398;SDS011;7797;51.428;6.756;2023-03-12T04:46:16;2.73;;;2.20;;
15398;SDS011;7797;51.428;6.756;2023-03-12T04:48:43;4.67;;;2.20;;
15398;SDS011;7797;51.428;6.756;2023-03-12T04:51:10;5.70;;;2.20;;
15398;SDS011;7797;51.428;6.756;2023-03-12T04:53:37;2.53;;;2.30;;
15398;SDS011;7797;51.428;6.756;2023-03-12T04:56:05;4.27;;;1.93;;
15398;SDS011;7797;51.428;6.756;2023-03-12T04:58:32;2.30;;;2.10;;
15398;SDS011;7797;51.428;6.756;2023-03-12T05:00:59;2.87;;;2.00;;
15398;SDS011;7797;51.428;6.756;2023-03-12T05:03:26;2.20;;;2.00;;
15398;SDS011;7797;51.428;6.756;2023-03-12T05:05:53;2.10;;;1.90;;
15398;SDS011;7797;51.428;6.756;2023-03-12T05:08:20;2.83;;;1.80;;
15398;SDS011;7797;51.428;6.756;2023-03-12T05:10:46;2.63;;;1.83;;
15398;SDS011;7797;51.428;6.756;2023-03-12T05:13:14;4.13;;;2.10;;
15398;SDS011;7797;51.428;6.756;2023-03-12T05:15:42;3.37;;;1.83;;
15398;SDS011;7797;51.428;6.756;2023-03-12T05:18:08;1.97;;;1.80;;
15398;SDS011;7797;51.428;6.756;2023-03-12T05:20:35;6.77;;;2.00;;
15398;SDS011;7797;51.428;6.756;2023-03-12T05:23:02;4.73;;;2.30;;
15398;SDS011;7797;51.428;6.756;2023-03-12T05:25:28;3.87;;;2.50;;
15398;SDS011;7797;51.428;6.756;2023-03-12T05:27:55;3.47;;;1.90;;
15398;SDS011;7797;51.428;6.756;2023-03-12T05:30:22;4.30;;;2.23;;
15398;SDS011;7797;51.428;6.756;2023-03-12T05:32:48;2.27;;;2.07;;
15398;SDS011;7797;51.428;6.756;2023-03-12T05:35:15;3.67;;;2.30;;
15398;SDS011;7797;51.428;6.756;2023-03-12T05:37:42;2.87;;;2.17;;
15398;SDS011;7797;51.428;6.756;2023-03-12T05:40:10;4.87;;;2.20;;
15398;SDS011;7797;51.428;6.756;2023-03-12T05:42:37;4.70;;;2.30;;
15398;SDS011;7797;51.428;6.756;2023-03-12T05:45:04;2.30;;;2.10;;
15398;SDS011;7797;51.428;6.756;2023-03-12T05:47:31;4.93;;;2.20;;
15398;SDS011;7797;51.428;6.756;2023-03-12T05:49:58;6.73;;;2.30;;
15398;SDS011;7797;51.428;6.756;2023-03-12T05:52:24;3.07;;;2.60;;
15398;SDS011;7797;51.428;6.756;2023-03-12T05:54:51;4.47;;;2.30;;
15398;SDS011;7797;51.428;6.756;2023-03-12T05:57:18;3.73;;;2.20;;
15398;SDS011;7797;51.428;6.756;2023-03-12T05:59:45;4.27;;;2.47;;
15398;SDS011;7797;51.428;6.756;2023-03-12T06:02:11;4.23;;;2.40;;
15398;SDS011;7797;51.428;6.756;2023-03-12T06:04:38;3.33;;;2.30;;
15398;SDS011;7797;51.428;6.756;2023-03-12T06:07:05;5.10;;;2.50;;
15398;SDS011;7797;51.428;6.756;2023-03-12T06:09:32;3.37;;;2.20;;
15398;SDS011;7797;51.428;6.756;2023-03-12T06:11:58;4.57;;;2.43;;
15398;SDS011;7797;51.428;6.756;2023-03-12T06:14:25;3.30;;;2.33;;
15398;SDS011;7797;51.428;6.756;2023-03-12T06:16:51;4.07;;;2.40;;
15398;SDS011;7797;51.428;6.756;2023-03-12T06:19:18;3.73;;;2.17;;
15398;SDS011;7797;51.428;6.756;2023-03-12T06:21:45;3.47;;;2.27;;
15398;SDS011;7797;51.428;6.756;2023-03-12T06:24:12;3.70;;;2.37;;
15398;SDS011;7797;51.428;6.756;2023-03-12T06:26:38;4.20;;;2.30;;
15398;SDS011;7797;51.428;6.756;2023-03-12T06:29:05;5.17;;;2.40;;
15398;SDS011;7797;51.428;6.756;2023-03-12T06:31:32;4.70;;;2.40;;
15398;SDS011;7797;51.428;6.756;2023-03-12T06:34:02;5.70;;;2.50;;
15398;SDS011;7797;51.428;6.756;2023-03-12T06:36:29;6.00;;;2.70;;
15398;SDS011;7797;51.428;6.756;2023-03-12T06:38:56;5.23;;;2.70;;
15398;SDS011;7797;51.428;6.756;2023-03-12T06:41:22;3.73;;;2.40;;
15398;SDS011;7797;51.428;6.756;2023-03-12T06:43:49;3.43;;;2.40;;
15398;SDS011;7797;51.428;6.756;2023-03-12T06:46:17;3.23;;;2.47;;
15398;SDS011;7797;51.428;6.756;2023-03-12T06:48:47;4.67;;;2.87;;
15398;SDS011;7797;51.428;6.756;2023-03-12T06:51:14;3.63;;;2.93;;
15398;SDS011;7797;51.428;6.756;2023-03-12T06:53:42;7.13;;;2.73;;
15398;SDS011;7797;51.428;6.756;2023-03-12T06:56:10;4.57;;;2.27;;
15398;SDS011;7797;51.428;6.756;2023-03-12T06:58:38;2.80;;;2.60;;
15398;SDS011;7797;51.428;6.756;2023-03-12T07:01:04;5.80;;;2.90;;
15398;SDS011;7797;51.428;6.756;2023-03-12T07:03:31;3.73;;;2.47;;
15398;SDS011;7797;51.428;6.756;2023-03-12T07:05:58;3.93;;;2.70;;
15398;SDS011;7797;51.428;6.756;2023-03-12T07:08:25;6.67;;;2.73;;
15398;SDS011;7797;51.428;6.756;2023-03-12T07:10:56;3.07;;;2.77;;
15398;SDS011;7797;51.428;6.756;2023-03-12T07:13:26;5.27;;;3.07;;
15398;SDS011;7797;51.428;6.756;2023-03-12T07:15:53;5.17;;;3.43;;
15398;SDS011;7797;51.428;6.756;2023-03-12T07:18:20;5.17;;;3.87;;
15398;SDS011;7797;51.428;6.756;2023-03-12T07:20:46;4.03;;;2.90;;
15398;SDS011;7797;51.428;6.756;2023-03-12T07:23:13;5.60;;;3.10;;
15398;SDS011;7797;51.428;6.756;2023-03-12T07:25:41;4.83;;;2.70;;
15398;SDS011;7797;51.428;6.756;2023-03-12T07:28:08;4.73;;;3.13;;
15398;SDS011;7797;51.428;6.756;2023-03-12T07:30:36;6.50;;;2.70;;
15398;SDS011;7797;51.428;6.756;2023-03-12T07:33:07;3.33;;;2.67;;
15398;SDS011;7797;51.428;6.756;2023-03-12T07:35:38;3.17;;;2.70;;
15398;SDS011;7797;51.428;6.756;2023-03-12T07:38:05;3.90;;;2.70;;
15398;SDS011;7797;51.428;6.756;2023-03-12T07:40:33;4.43;;;2.83;;
15398;SDS011;7797;51.428;6.756;2023-03-12T07:43:00;4.17;;;2.83;;
15398;SDS011;7797;51.428;6.756;2023-03-12T07:45:27;6.23;;;2.67;;
15398;SDS011;7797;51.428;6.756;2023-03-12T07:47:54;4.10;;;2.70;;
15398;SDS011;7797;51.428;6.756;2023-03-12T07:50:21;3.50;;;2.50;;
15398;SDS011;7797;51.428;6.756;2023-03-12T07:52:48;4.47;;;2.50;;
15398;SDS011;7797;51.428;6.756;2023-03-12T07:55:15;3.90;;;2.80;;
15398;SDS011;7797;51.428;6.756;2023-03-12T07:57:42;2.63;;;2.43;;
15398;SDS011;7797;51.428;6.756;2023-03-12T08:00:12;3.70;;;3.10;;
15398;SDS011;7797;51.428;6.756;2023-03-12T08:02:40;3.27;;;2.60;;
15398;SDS011;7797;51.428;6.756;2023-03-12T08:05:07;3.07;;;2.50;;
15398;SDS011;7797;51.428;6.756;2023-03-12T08:07:35;4.57;;;2.77;;
15398;SDS011;7797;51.428;6.756;2023-03-12T08:10:03;3.90;;;2.80;;
15398;SDS011;7797;51.428;6.756;2023-03-12T08:12:31;4.10;;;3.03;;
15398;SDS011;7797;51.428;6.756;2023-03-12T08:14:58;3.67;;;2.80;;
15398;SDS011;7797;51.428;6.756;2023-03-12T08:17:25;5.77;;;3.43;;
15398;SDS011;7797;51.428;6.756;2023-03-12T08:19:52;4.73;;;2.90;;
15398;SDS011;7797;51.428;6.756;2023-03-12T08:22:19;3.73;;;3.17;;
15398;SDS011;7797;51.428;6.756;2023-03-12T08:24:46;4.00;;;2.83;;
15398;SDS011;7797;51.428;6.756;2023-03-12T08:27:12;4.03;;;3.30;;
15398;SDS011;7797;51.428;6.756;2023-03-12T08:29:39;3.23;;;2.93;;
15398;SDS011;7797;51.428;6.756;2023-03-12T08:32:07;2.97;;;2.77;;
15398;SDS011;7797;51.428;6.756;2023-03-12T08:34:36;4.20;;;3.20;;
15398;SDS011;7797;51.428;6.756;2023-03-12T08:37:03;5.03;;;3.13;;
15398;SDS011;7797;51.428;6.756;2023-03-12T08:39:30;6.23;;;3.37;;
15398;SDS011;7797;51.428;6.756;2023-03-12T08:41:57;5.60;;;3.03;;
15398;SDS011;7797;51.428;6.756;2023-03-12T08:44:24;4.60;;;3.10;;
15398;SDS011;7797;51.428;6.756;2023-03-12T08:46:51;8.70;;;3.57;;
15398;SDS011;7797;51.428;6.756;2023-03-12T08:49:18;5.07;;;3.40;;
15398;SDS011;7797;51.428;6.756;2023-03-12T08:51:45;4.03;;;3.13;;
15398;SDS011;7797;51.428;6.756;2023-03-12T08:54:12;4.83;;;3.30;;
15398;SDS011;7797;51.428;6.756;2023-03-12T08:56:39;4.03;;;3.63;;
15398;SDS011;7797;51.428;6.756;2023-03-12T08:59:09;3.43;;;3.13;;
15398;SDS011;7797;51.428;6.756;2023-03-12T09:01:37;4.77;;;3.70;;
15398;SDS011;7797;51.428;6.756;2023-03-12T09:04:08;4.33;;;3.43;;
15398;SDS011;7797;51.428;6.756;2023-03-12T09:06:35;4.97;;;3.43;;
15398;SDS011;7797;51.428;6.756;2023-03-12T09:09:04;6.10;;;3.50;;
15398;SDS011;7797;51.428;6.756;2023-03-12T09:11:31;5.93;;;3.90;;
15398;SDS011;7797;51.428;6.756;2023-03-12T09:13:59;4.57;;;3.93;;
15398;SDS011;7797;51.428;6.756;2023-03-12T09:16:47;5.20;;;3.87;;
15398;SDS011;7797;51.428;6.756;2023-03-12T09:19:14;4.43;;;3.87;;
15398;SDS011;7797;51.428;6.756;2023-03-12T09:21:41;3.83;;;3.53;;
15398;SDS011;7797;51.428;6.756;2023-03-12T09:24:09;8.77;;;4.30;;
15398;SDS011;7797;51.428;6.756;2023-03-12T09:26:36;4.90;;;4.47;;
15398;SDS011;7797;51.428;6.756;2023-03-12T09:29:03;5.37;;;4.17;;
15398;SDS011;7797;51.428;6.756;2023-03-12T09:31:31;6.60;;;4.27;;
15398;SDS011;7797;51.428;6.756;2023-03-12T09:33:57;6.30;;;4.43;;
15398;SDS011;7797;51.428;6.756;2023-03-12T09:36:24;5.93;;;4.63;;
15398;SDS011;7797;51.428;6.756;2023-03-12T09:38:51;5.23;;;4.30;;
15398;SDS011;7797;51.428;6.756;2023-03-12T09:41:19;7.23;;;4.50;;
15398;SDS011;7797;51.428;6.756;2023-03-12T09:43:49;5.23;;;4.70;;
15398;SDS011;7797;51.428;6.756;2023-03-12T09:46:28;5.63;;;4.53;;
15398;SDS011;7797;51.428;6.756;2023-03-12T09:49:05;6.93;;;4.90;;
15398;SDS011;7797;51.428;6.756;2023-03-12T09:51:38;5.33;;;4.83;;
15398;SDS011;7797;51.428;6.756;2023-03-12T09:54:13;6.20;;;5.40;;
15398;SDS011;7797;51.428;6.756;2023-03-12T09:56:49;5.97;;;5.30;;
15398;SDS011;7797;51.428;6.756;2023-03-12T09:59:16;6.10;;;4.90;;
15398;SDS011;7797;51.428;6.756;2023-03-12T10:01:49;6.13;;;5.00;;
15398;SDS011;7797;51.428;6.756;2023-03-12T10:04:37;6.10;;;5.50;;
15398;SDS011;7797;51.428;6.756;2023-03-12T10:07:33;5.30;;;4.80;;
15398;SDS011;7797;51.428;6.756;2023-03-12T10:10:22;5.93;;;5.27;;
15398;SDS011;7797;51.428;6.756;2023-03-12T10:24:03;6.20;;;5.60;;
15398;SDS011;7797;51.428;6.756;2023-03-12T10:26:39;6.27;;;5.77;;
15398;SDS011;7797;51.428;6.756;2023-03-12T10:29:15;6.43;;;5.83;;
15398;SDS011;7797;51.428;6.756;2023-03-12T10:31:49;6.03;;;5.53;;
15398;SDS011;7797;51.428;6.756;2023-03-12T10:34:24;6.87;;;6.27;;
15398;SDS011;7797;51.428;6.756;2023-03-12T10:37:11;8.30;;;6.27;;
15398;SDS011;7797;51.428;6.756;2023-03-12T10:39:42;6.73;;;6.10;;
15398;SDS011;7797;51.428;6.756;2023-03-12T10:42:19;8.13;;;6.97;;
15398;SDS011;7797;51.428;6.756;2023-03-12T10:44:53;7.63;;;6.93;;
15398;SDS011;7797;51.428;6.756;2023-03-12T10:47:36;8.20;;;7.40;;
15398;SDS011;7797;51.428;6.756;2023-03-12T10:52:49;9.60;;;7.97;;
15398;SDS011;7797;51.428;6.756;2023-03-12T10:55:23;9.00;;;7.53;;
15398;SDS011;7797;51.428;6.756;2023-03-12T10:57:52;9.00;;;8.10;;
15398;SDS011;7797;51.428;6.756;2023-03-12T11:00:20;9.77;;;8.33;;
15398;SDS011;7797;51.428;6.756;2023-03-12T11:02:56;10.13;;;8.83;;
15398;SDS011;7797;51.428;6.756;2023-03-12T11:05:30;12.53;;;9.23;;
15398;SDS011;7797;51.428;6.756;2023-03-12T11:08:24;11.07;;;9.53;;
15398;SDS011;7797;51.428;6.756;2023-03-12T11:10:54;9.70;;;8.67;;
15398;SDS011;7797;51.428;6.756;2023-03-12T11:13:30;13.70;;;8.93;;
15398;SDS011;7797;51.428;6.756;2023-03-12T11:16:01;11.23;;;9.03;;
15398;SDS011;7797;51.428;6.756;2023-03-12T11:18:57;10.70;;;9.40;;
15398;SDS011;7797;51.428;6.756;2023-03-12T11:21:31;9.43;;;8.43;;
15398;SDS011;7797;51.428;6.756;2023-03-12T11:24:06;10.73;;;8.93;;
15398;SDS011;7797;51.428;6.756;2023-03-12T11:29:23;10.83;;;8.87;;
15398;SDS011;7797;51.428;6.756;2023-03-12T11:32:01;15.43;;;9.60;;
15398;SDS011;7797;51.428;6.756;2023-03-12T11:34:41;13.07;;;9.43;;
15398;SDS011;7797;51.428;6.756;2023-03-12T11:46:24;15.43;;;11.07;;
15398;SDS011;7797;51.428;6.756;2023-03-12T11:57:02;14.57;;;11.23;;
15398;SDS011;7797;51.428;6.756;2023-03-12T12:05:20;16.17;;;11.67;;
15398;SDS011;7797;51.428;6.756;2023-03-12T12:10:29;13.10;;;9.57;;
15398;SDS011;7797;51.428;6.756;2023-03-12T12:21:44;13.90;;;9.77;;
15398;SDS011;7797;51.428;6.756;2023-03-12T12:24:35;14.30;;;9.93;;
15398;SDS011;7797;51.428;6.756;2023-03-12T12:29:54;15.67;;;9.70;;
15398;SDS011;7797;51.428;6.756;2023-03-12T12:32:35;11.60;;;9.50;;
15398;SDS011;7797;51.428;6.756;2023-03-12T12:35:28;13.03;;;9.50;;
15398;SDS011;7797;51.428;6.756;2023-03-12T12:40:58;13.47;;;10.10;;
15398;SDS011;7797;51.428;6.756;2023-03-12T12:44:09;13.50;;;9.60;;
15398;SDS011;7797;51.428;6.756;2023-03-12T12:46:39;12.07;;;9.77;;
15398;SDS011;7797;51.428;6.756;2023-03-12T12:49:16;15.27;;;9.97;;
15398;SDS011;7797;51.428;6.756;2023-03-12T12:51:49;18.50;;;10.27;;
15398;SDS011;7797;51.428;6.756;2023-03-12T12:54:23;22.87;;;11.33;;
15398;SDS011;7797;51.428;6.756;2023-03-12T13:03:29;22.20;;;11.30;;
15398;SDS011;7797;51.428;6.756;2023-03-12T13:06:01;22.93;;;11.27;;
15398;SDS011;7797;51.428;6.756;2023-03-12T13:11:24;21.90;;;10.63;;
15398;SDS011;7797;51.428;6.756;2023-03-12T13:21:45;23.93;;;9.70;;
15398;SDS011;7797;51.428;6.756;2023-03-12T13:24:45;20.73;;;8.90;;
15398;SDS011;7797;51.428;6.756;2023-03-12T13:27:39;21.27;;;8.30;;
15398;SDS011;7797;51.428;6.756;2023-03-12T13:35:33;16.23;;;7.07;;
15398;SDS011;7797;51.428;6.756;2023-03-12T13:38:16;24.23;;;7.87;;
15398;SDS011;7797;51.428;6.756;2023-03-12T13:40:55;19.00;;;7.77;;
15398;SDS011;7797;51.428;6.756;2023-03-12T13:44:21;22.27;;;7.47;;
15398;SDS011;7797;51.428;6.756;2023-03-12T13:48:44;19.77;;;6.50;;
15398;SDS011;7797;51.428;6.756;2023-03-12T13:51:16;22.43;;;6.60;;
15398;SDS011;7797;51.428;6.756;2023-03-12T13:53:48;19.73;;;6.13;;
15398;SDS011;7797;51.428;6.756;2023-03-12T13:56:20;20.77;;;6.77;;
15398;SDS011;7797;51.428;6.756;2023-03-12T13:58:56;19.60;;;6.10;;
15398;SDS011;7797;51.428;6.756;2023-03-12T14:01:29;17.73;;;5.97;;
15398;SDS011;7797;51.428;6.756;2023-03-12T14:04:03;19.97;;;6.67;;
15398;SDS011;7797;51.428;6.756;2023-03-12T14:06:35;15.43;;;5.30;;
15398;SDS011;7797;51.428;6.756;2023-03-12T14:09:30;21.70;;;5.60;;
15398;SDS011;7797;51.428;6.756;2023-03-12T14:12:29;24.13;;;5.37;;
15398;SDS011;7797;51.428;6.756;2023-03-12T14:15:12;20.50;;;5.80;;
15398;SDS011;7797;51.428;6.756;2023-03-12T14:17:58;20.27;;;5.37;;
15398;SDS011;7797;51.428;6.756;2023-03-12T14:20:27;17.23;;;4.93;;
15398;SDS011;7797;51.428;6.756;2023-03-12T14:22:57;20.60;;;5.40;;
15398;SDS011;7797;51.428;6.756;2023-03-12T14:25:33;27.53;;;5.93;;
15398;SDS011;7797;51.428;6.756;2023-03-12T14:28:03;19.40;;;5.27;;
15398;SDS011;7797;51.428;6.756;2023-03-12T14:30:38;20.40;;;5.10;;
15398;SDS011;7797;51.428;6.756;2023-03-12T14:33:10;20.13;;;5.33;;
15398;SDS011;7797;51.428;6.756;2023-03-12T14:35:40;18.67;;;5.53;;
15398;SDS011;7797;51.428;6.756;2023-03-12T14:38:17;17.30;;;5.10;;
15398;SDS011;7797;51.428;6.756;2023-03-12T14:41:01;21.13;;;5.10;;
15398;SDS011;7797;51.428;6.756;2023-03-12T14:43:31;22.60;;;5.03;;
15398;SDS011;7797;51.428;6.756;2023-03-12T14:46:01;18.43;;;5.23;;
15398;SDS011;7797;51.428;6.756;2023-03-12T14:48:31;15.40;;;4.47;;
15398;SDS011;7797;51.428;6.756;2023-03-12T14:51:00;18.50;;;4.73;;
15398;SDS011;7797;51.428;6.756;2023-03-12T14:53:29;22.33;;;4.67;;
15398;SDS011;7797;51.428;6.756;2023-03-12T14:58:49;17.40;;;4.33;;
15398;SDS011;7797;51.428;6.756;2023-03-12T15:01:28;17.50;;;4.27;;
15398;SDS011;7797;51.428;6.756;2023-03-12T15:04:00;15.40;;;4.17;;
15398;SDS011;7797;51.428;6.756;2023-03-12T15:06:32;18.20;;;4.73;;
15398;SDS011;7797;51.428;6.756;2023-03-12T15:09:01;16.73;;;4.70;;
15398;SDS011;7797;51.428;6.756;2023-03-12T15:11:34;20.17;;;4.37;;
15398;SDS011;7797;51.428;6.756;2023-03-12T15:14:06;20.70;;;4.93;;
15398;SDS011;7797;51.428;6.756;2023-03-12T15:16:41;20.57;;;4.50;;
15398;SDS011;7797;51.428;6.756;2023-03-12T15:19:11;16.53;;;4.57;;
15398;SDS011;7797;51.428;6.756;2023-03-12T15:21:41;15.63;;;4.87;;
15398;SDS011;7797;51.428;6.756;2023-03-12T15:24:32;16.23;;;4.00;;
15398;SDS011;7797;51.428;6.756;2023-03-12T15:30:19;15.33;;;4.50;;
15398;SDS011;7797;51.428;6.756;2023-03-12T15:36:13;17.43;;;4.60;;
15398;SDS011;7797;51.428;6.756;2023-03-12T15:39:02;20.07;;;4.57;;
15398;SDS011;7797;51.428;6.756;2023-03-12T15:41:41;17.97;;;4.40;;
15398;SDS011;7797;51.428;6.756;2023-03-12T15:44:12;14.73;;;3.67;;
15398;SDS011;7797;51.428;6.756;2023-03-12T15:46:48;17.37;;;4.07;;
15398;SDS011;7797;51.428;6.756;2023-03-12T15:49:27;16.03;;;4.30;;
15398;SDS011;7797;51.428;6.756;2023-03-12T15:52:56;20.23;;;4.37;;
15398;SDS011;7797;51.428;6.756;2023-03-12T15:57:48;19.23;;;4.63;;
15398;SDS011;7797;51.428;6.756;2023-03-12T16:02:58;13.47;;;3.80;;
15398;SDS011;7797;51.428;6.756;2023-03-12T16:05:30;20.77;;;4.40;;
15398;SDS011;7797;51.428;6.756;2023-03-12T16:08:14;18.93;;;4.47;;
15398;SDS011;7797;51.428;6.756;2023-03-12T16:10:54;18.83;;;3.93;;
15398;SDS011;7797;51.428;6.756;2023-03-12T16:13:22;18.60;;;4.10;;
15398;SDS011;7797;51.428;6.756;2023-03-12T16:15:53;17.63;;;3.80;;
15398;SDS011;7797;51.428;6.756;2023-03-12T16:18:21;17.00;;;4.00;;
15398;SDS011;7797;51.428;6.756;2023-03-12T16:20:48;19.03;;;4.10;;
15398;SDS011;7797;51.428;6.756;2023-03-12T16:23:16;18.17;;;4.07;;
15398;SDS011;7797;51.428;6.756;2023-03-12T16:25:45;13.80;;;3.60;;
15398;SDS011;7797;51.428;6.756;2023-03-12T16:28:37;15.93;;;3.10;;
15398;SDS011;7797;51.428;6.756;2023-03-12T16:31:09;16.47;;;3.73;;
15398;SDS011;7797;51.428;6.756;2023-03-12T16:33:37;16.53;;;3.67;;
15398;SDS011;7797;51.428;6.756;2023-03-12T16:36:08;16.73;;;4.00;;
15398;SDS011;7797;51.428;6.756;2023-03-12T16:38:37;18.47;;;3.97;;
15398;SDS011;7797;51.428;6.756;2023-03-12T16:41:04;16.73;;;3.53;;
15398;SDS011;7797;51.428;6.756;2023-03-12T16:43:31;19.13;;;3.90;;
15398;SDS011;7797;51.428;6.756;2023-03-12T16:46:00;17.00;;;3.73;;
15398;SDS011;7797;51.428;6.756;2023-03-12T16:48:30;11.53;;;3.70;;
15398;SDS011;7797;51.428;6.756;2023-03-12T16:50:57;18.13;;;3.83;;
15398;SDS011;7797;51.428;6.756;2023-03-12T16:53:25;14.30;;;3.90;;
15398;SDS011;7797;51.428;6.756;2023-03-12T16:55:52;17.90;;;4.20;;
15398;SDS011;7797;51.428;6.756;2023-03-12T16:58:22;18.00;;;3.93;;
15398;SDS011;7797;51.428;6.756;2023-03-12T17:00:50;14.87;;;3.33;;
15398;SDS011;7797;51.428;6.756;2023-03-12T17:03:19;16.07;;;3.90;;
15398;SDS011;7797;51.428;6.756;2023-03-12T17:05:51;16.23;;;3.90;;